sensor_id;sensor_type;location;lat;lon;timestamp;P1;durP1;ratioP1;P2;durP2;ratioP2
1452;SDS011;720;47.738;7.998;2024-01-27T00:01:35;17.20;;;3.27;;
1452;SDS011;720;47.738;7.998;2024-01-27T00:04:01;5.37;;;2.27;;
1452;SDS011;720;47.738;7.998;2024-01-27T00:06:27;7.22;;;2.35;;
1452;SDS011;720;47.738;7.998;2024-01-27T00:08:52;3.70;;;1.80;;
1452;SDS011;720;47.738;7.998;2024-01-27T00:11:18;12.73;;;2.33;;
1452;SDS011;720;47.738;7.998;2024-01-27T00:13:44;2.38;;;1.45;;
1452;SDS011;720;47.738;7.998;2024-01-27T00:16:11;1.55;;;1.20;;
1452;SDS011;720;47.738;7.998;2024-01-27T00:18:37;14.87;;;4.90;;
1452;SDS011;720;47.738;7.998;2024-01-27T00:21:04;12.05;;;2.75;;
1452;SDS011;720;47.738;7.998;2024-01-27T00:23:30;11.30;;;3.65;;
1452;SDS011;720;47.738;7.998;2024-01-27T00:25:57;47.30;;;7.35;;
1452;SDS011;720;47.738;7.998;2024-01-27T00:28:23;28.10;;;5.23;;
1452;SDS011;720;47.738;7.998;2024-01-27T00:30:48;60.83;;;8.63;;
1452;SDS011;720;47.738;7.998;2024-01-27T00:33:14;52.47;;;8.03;;
1452;SDS011;720;47.738;7.998;2024-01-27T00:35:40;15.50;;;5.00;;
1452;SDS011;720;47.738;7.998;2024-01-27T00:38:05;40.30;;;6.83;;
1452;SDS011;720;47.738;7.998;2024-01-27T00:40:31;11.10;;;2.83;;
1452;SDS011;720;47.738;7.998;2024-01-27T00:42:56;8.97;;;3.00;;
1452;SDS011;720;47.738;7.998;2024-01-27T00:45:22;6.73;;;3.37;;
1452;SDS011;720;47.738;7.998;2024-01-27T00:47:49;25.07;;;5.40;;
1452;SDS011;720;47.738;7.998;2024-01-27T00:50:15;30.13;;;5.30;;
1452;SDS011;720;47.738;7.998;2024-01-27T00:52:41;36.70;;;5.13;;
1452;SDS011;720;47.738;7.998;2024-01-27T00:55:07;32.83;;;5.73;;
1452;SDS011;720;47.738;7.998;2024-01-27T00:57:33;9.98;;;3.40;;
1452;SDS011;720;47.738;7.998;2024-01-27T01:00:01;28.90;;;3.75;;
1452;SDS011;720;47.738;7.998;2024-01-27T01:02:27;29.77;;;6.65;;
1452;SDS011;720;47.738;7.998;2024-01-27T01:04:54;14.20;;;3.80;;
1452;SDS011;720;47.738;7.998;2024-01-27T01:07:19;28.90;;;3.40;;
1452;SDS011;720;47.738;7.998;2024-01-27T01:09:45;4.13;;;1.67;;
1452;SDS011;720;47.738;7.998;2024-01-27T01:12:11;2.27;;;1.80;;
1452;SDS011;720;47.738;7.998;2024-01-27T01:14:36;3.63;;;1.40;;
1452;SDS011;720;47.738;7.998;2024-01-27T01:17:02;2.93;;;1.40;;
1452;SDS011;720;47.738;7.998;2024-01-27T01:19:28;1.13;;;0.90;;
1452;SDS011;720;47.738;7.998;2024-01-27T01:21:53;1.27;;;1.27;;
1452;SDS011;720;47.738;7.998;2024-01-27T01:24:19;2.00;;;1.90;;
1452;SDS011;720;47.738;7.998;2024-01-27T01:26:45;3.53;;;1.67;;
1452;SDS011;720;47.738;7.998;2024-01-27T01:29:10;2.60;;;2.03;;
1452;SDS011;720;47.738;7.998;2024-01-27T01:31:36;1.67;;;1.57;;
1452;SDS011;720;47.738;7.998;2024-01-27T01:34:02;4.77;;;1.90;;
1452;SDS011;720;47.738;7.998;2024-01-27T01:36:27;3.47;;;2.40;;
1452;SDS011;720;47.738;7.998;2024-01-27T01:38:53;3.03;;;1.90;;
1452;SDS011;720;47.738;7.998;2024-01-27T01:41:19;3.97;;;2.00;;
1452;SDS011;720;47.738;7.998;2024-01-27T01:43:44;7.20;;;2.50;;
1452;SDS011;720;47.738;7.998;2024-01-27T01:46:10;4.53;;;2.47;;
1452;SDS011;720;47.738;7.998;2024-01-27T01:48:36;3.80;;;2.10;;
1452;SDS011;720;47.738;7.998;2024-01-27T01:51:01;2.40;;;1.87;;
1452;SDS011;720;47.738;7.998;2024-01-27T01:53:29;4.35;;;2.35;;
1452;SDS011;720;47.738;7.998;2024-01-27T01:55:54;2.63;;;2.40;;
1452;SDS011;720;47.738;7.998;2024-01-27T01:58:20;4.15;;;2.53;;
1452;SDS011;720;47.738;7.998;2024-01-27T02:00:46;6.73;;;4.27;;
1452;SDS011;720;47.738;7.998;2024-01-27T02:03:12;2.50;;;1.63;;
1452;SDS011;720;47.738;7.998;2024-01-27T02:05:39;3.28;;;1.83;;
1452;SDS011;720;47.738;7.998;2024-01-27T02:08:05;8.02;;;2.38;;
1452;SDS011;720;47.738;7.998;2024-01-27T02:10:31;2.72;;;1.52;;
1452;SDS011;720;47.738;7.998;2024-01-27T02:13:14;2.45;;;1.20;;
1452;SDS011;720;47.738;7.998;2024-01-27T02:15:50;6.47;;;1.80;;
1452;SDS011;720;47.738;7.998;2024-01-27T02:18:16;4.60;;;1.60;;
1452;SDS011;720;47.738;7.998;2024-01-27T02:20:42;2.30;;;1.67;;
1452;SDS011;720;47.738;7.998;2024-01-27T02:23:07;1.77;;;1.50;;
1452;SDS011;720;47.738;7.998;2024-01-27T02:25:33;2.00;;;1.03;;
1452;SDS011;720;47.738;7.998;2024-01-27T02:28:00;3.55;;;1.98;;
1452;SDS011;720;47.738;7.998;2024-01-27T02:30:27;3.63;;;1.92;;
1452;SDS011;720;47.738;7.998;2024-01-27T02:32:55;1.40;;;1.20;;
1452;SDS011;720;47.738;7.998;2024-01-27T02:35:21;4.32;;;1.88;;
1452;SDS011;720;47.738;7.998;2024-01-27T02:37:47;3.07;;;2.00;;
1452;SDS011;720;47.738;7.998;2024-01-27T02:40:12;2.63;;;2.23;;
1452;SDS011;720;47.738;7.998;2024-01-27T02:42:39;2.95;;;1.90;;
1452;SDS011;720;47.738;7.998;2024-01-27T02:45:07;2.75;;;1.55;;
1452;SDS011;720;47.738;7.998;2024-01-27T02:47:33;1.40;;;1.30;;
1452;SDS011;720;47.738;7.998;2024-01-27T02:49:58;3.10;;;2.20;;
1452;SDS011;720;47.738;7.998;2024-01-27T02:52:24;2.07;;;1.87;;
1452;SDS011;720;47.738;7.998;2024-01-27T02:54:52;1.63;;;1.30;;
1452;SDS011;720;47.738;7.998;2024-01-27T02:57:21;2.25;;;1.95;;
1452;SDS011;720;47.738;7.998;2024-01-27T02:59:46;1.13;;;1.03;;
1452;SDS011;720;47.738;7.998;2024-01-27T03:02:12;1.60;;;1.50;;
1452;SDS011;720;47.738;7.998;2024-01-27T03:04:38;2.50;;;2.07;;
1452;SDS011;720;47.738;7.998;2024-01-27T03:07:03;3.90;;;2.73;;
1452;SDS011;720;47.738;7.998;2024-01-27T03:09:29;9.43;;;2.75;;
1452;SDS011;720;47.738;7.998;2024-01-27T03:11:55;2.40;;;1.57;;
1452;SDS011;720;47.738;7.998;2024-01-27T03:14:21;7.23;;;2.20;;
1452;SDS011;720;47.738;7.998;2024-01-27T03:16:47;3.00;;;2.17;;
1452;SDS011;720;47.738;7.998;2024-01-27T03:19:13;1.55;;;1.45;;
1452;SDS011;720;47.738;7.998;2024-01-27T03:21:39;1.50;;;1.40;;
1452;SDS011;720;47.738;7.998;2024-01-27T03:24:04;1.80;;;1.00;;
1452;SDS011;720;47.738;7.998;2024-01-27T03:26:30;2.20;;;1.73;;
1452;SDS011;720;47.738;7.998;2024-01-27T03:28:56;9.43;;;1.57;;
1452;SDS011;720;47.738;7.998;2024-01-27T03:31:21;3.73;;;1.63;;
1452;SDS011;720;47.738;7.998;2024-01-27T03:33:47;3.17;;;1.23;;
1452;SDS011;720;47.738;7.998;2024-01-27T03:36:13;1.27;;;1.10;;
1452;SDS011;720;47.738;7.998;2024-01-27T03:38:40;1.50;;;1.40;;
1452;SDS011;720;47.738;7.998;2024-01-27T03:41:06;2.08;;;1.60;;
1452;SDS011;720;47.738;7.998;2024-01-27T03:43:33;1.70;;;1.60;;
1452;SDS011;720;47.738;7.998;2024-01-27T03:45:59;7.72;;;2.65;;
1452;SDS011;720;47.738;7.998;2024-01-27T03:48:25;1.80;;;1.70;;
1452;SDS011;720;47.738;7.998;2024-01-27T03:50:50;3.17;;;2.30;;
1452;SDS011;720;47.738;7.998;2024-01-27T03:53:16;4.40;;;1.73;;
1452;SDS011;720;47.738;7.998;2024-01-27T03:55:42;2.13;;;1.70;;
1452;SDS011;720;47.738;7.998;2024-01-27T03:58:07;1.33;;;1.23;;
1452;SDS011;720;47.738;7.998;2024-01-27T04:00:33;2.80;;;1.97;;
1452;SDS011;720;47.738;7.998;2024-01-27T04:02:59;1.80;;;1.70;;
1452;SDS011;720;47.738;7.998;2024-01-27T04:05:25;3.63;;;2.95;;
1452;SDS011;720;47.738;7.998;2024-01-27T04:07:51;1.70;;;1.27;;
1452;SDS011;720;47.738;7.998;2024-01-27T04:10:17;1.33;;;1.13;;
1452;SDS011;720;47.738;7.998;2024-01-27T04:12:43;5.88;;;1.30;;
1452;SDS011;720;47.738;7.998;2024-01-27T04:15:09;2.60;;;1.67;;
1452;SDS011;720;47.738;7.998;2024-01-27T04:17:36;1.45;;;1.25;;
1452;SDS011;720;47.738;7.998;2024-01-27T04:20:02;3.15;;;1.20;;
1452;SDS011;720;47.738;7.998;2024-01-27T04:22:29;2.42;;;1.40;;
1452;SDS011;720;47.738;7.998;2024-01-27T04:24:55;1.95;;;1.30;;
1452;SDS011;720;47.738;7.998;2024-01-27T04:27:21;1.10;;;1.10;;
1452;SDS011;720;47.738;7.998;2024-01-27T04:29:46;2.00;;;1.80;;
1452;SDS011;720;47.738;7.998;2024-01-27T04:32:12;2.60;;;0.90;;
1452;SDS011;720;47.738;7.998;2024-01-27T04:34:38;5.43;;;1.40;;
1452;SDS011;720;47.738;7.998;2024-01-27T04:37:04;2.05;;;1.45;;
1452;SDS011;720;47.738;7.998;2024-01-27T04:39:30;2.10;;;1.05;;
1452;SDS011;720;47.738;7.998;2024-01-27T04:41:56;1.23;;;1.13;;
1452;SDS011;720;47.738;7.998;2024-01-27T04:44:22;1.60;;;1.47;;
1452;SDS011;720;47.738;7.998;2024-01-27T04:46:47;2.50;;;2.30;;
1452;SDS011;720;47.738;7.998;2024-01-27T04:49:16;1.97;;;1.63;;
1452;SDS011;720;47.738;7.998;2024-01-27T04:51:42;1.30;;;1.20;;
1452;SDS011;720;47.738;7.998;2024-01-27T04:54:08;1.70;;;0.80;;
1452;SDS011;720;47.738;7.998;2024-01-27T04:56:33;1.75;;;1.00;;
1452;SDS011;720;47.738;7.998;2024-01-27T04:58:59;7.30;;;0.93;;
1452;SDS011;720;47.738;7.998;2024-01-27T05:01:25;2.27;;;0.87;;
1452;SDS011;720;47.738;7.998;2024-01-27T05:03:50;1.43;;;1.23;;
1452;SDS011;720;47.738;7.998;2024-01-27T05:06:16;6.63;;;1.33;;
1452;SDS011;720;47.738;7.998;2024-01-27T05:08:42;0.90;;;0.90;;
1452;SDS011;720;47.738;7.998;2024-01-27T05:11:09;2.33;;;1.00;;
1452;SDS011;720;47.738;7.998;2024-01-27T05:13:34;2.00;;;1.45;;
1452;SDS011;720;47.738;7.998;2024-01-27T05:16:02;4.13;;;1.48;;
1452;SDS011;720;47.738;7.998;2024-01-27T05:18:28;0.87;;;0.87;;
1452;SDS011;720;47.738;7.998;2024-01-27T05:20:54;3.13;;;1.17;;
1452;SDS011;720;47.738;7.998;2024-01-27T05:23:19;2.10;;;1.40;;
1452;SDS011;720;47.738;7.998;2024-01-27T05:25:45;1.90;;;1.17;;
1452;SDS011;720;47.738;7.998;2024-01-27T05:28:11;1.87;;;1.67;;
1452;SDS011;720;47.738;7.998;2024-01-27T05:30:36;0.80;;;0.80;;
1452;SDS011;720;47.738;7.998;2024-01-27T05:33:02;1.57;;;0.80;;
1452;SDS011;720;47.738;7.998;2024-01-27T05:35:28;5.20;;;1.20;;
1452;SDS011;720;47.738;7.998;2024-01-27T05:37:53;2.60;;;1.23;;
1452;SDS011;720;47.738;7.998;2024-01-27T05:40:19;1.27;;;1.07;;
1452;SDS011;720;47.738;7.998;2024-01-27T05:42:44;1.33;;;1.23;;
1452;SDS011;720;47.738;7.998;2024-01-27T05:45:10;4.00;;;1.40;;
1452;SDS011;720;47.738;7.998;2024-01-27T05:47:36;1.43;;;1.30;;
1452;SDS011;720;47.738;7.998;2024-01-27T05:50:02;3.43;;;2.03;;
1452;SDS011;720;47.738;7.998;2024-01-27T05:52:28;2.25;;;1.58;;
1452;SDS011;720;47.738;7.998;2024-01-27T05:54:53;7.03;;;3.53;;
1452;SDS011;720;47.738;7.998;2024-01-27T05:57:19;2.77;;;2.53;;
1452;SDS011;720;47.738;7.998;2024-01-27T05:59:45;3.30;;;2.50;;
1452;SDS011;720;47.738;7.998;2024-01-27T06:02:10;2.40;;;1.60;;
1452;SDS011;720;47.738;7.998;2024-01-27T06:04:36;6.40;;;3.83;;
1452;SDS011;720;47.738;7.998;2024-01-27T06:07:02;5.43;;;2.73;;
1452;SDS011;720;47.738;7.998;2024-01-27T06:09:27;3.40;;;2.13;;
1452;SDS011;720;47.738;7.998;2024-01-27T06:11:53;3.67;;;2.93;;
1452;SDS011;720;47.738;7.998;2024-01-27T06:14:19;6.83;;;3.03;;
1452;SDS011;720;47.738;7.998;2024-01-27T06:16:44;4.23;;;2.80;;
1452;SDS011;720;47.738;7.998;2024-01-27T06:19:10;1.97;;;1.70;;
1452;SDS011;720;47.738;7.998;2024-01-27T06:21:36;2.10;;;1.90;;
1452;SDS011;720;47.738;7.998;2024-01-27T06:24:01;1.50;;;1.40;;
1452;SDS011;720;47.738;7.998;2024-01-27T06:26:27;2.60;;;1.67;;
1452;SDS011;720;47.738;7.998;2024-01-27T06:28:52;2.30;;;1.47;;
1452;SDS011;720;47.738;7.998;2024-01-27T06:31:18;1.80;;;1.70;;
1452;SDS011;720;47.738;7.998;2024-01-27T06:33:44;2.80;;;1.50;;
1452;SDS011;720;47.738;7.998;2024-01-27T06:36:09;1.53;;;1.37;;
1452;SDS011;720;47.738;7.998;2024-01-27T06:38:37;7.47;;;1.70;;
1452;SDS011;720;47.738;7.998;2024-01-27T06:41:03;2.55;;;1.90;;
1452;SDS011;720;47.738;7.998;2024-01-27T06:43:28;3.72;;;1.50;;
1452;SDS011;720;47.738;7.998;2024-01-27T06:45:54;2.83;;;1.60;;
1452;SDS011;720;47.738;7.998;2024-01-27T06:48:22;10.85;;;1.73;;
1452;SDS011;720;47.738;7.998;2024-01-27T06:50:50;3.92;;;2.05;;
1452;SDS011;720;47.738;7.998;2024-01-27T06:53:16;1.60;;;1.43;;
1452;SDS011;720;47.738;7.998;2024-01-27T06:55:43;1.92;;;1.77;;
1452;SDS011;720;47.738;7.998;2024-01-27T06:58:08;2.90;;;1.77;;
1452;SDS011;720;47.738;7.998;2024-01-27T07:00:34;2.03;;;1.93;;
1452;SDS011;720;47.738;7.998;2024-01-27T07:02:59;1.70;;;1.57;;
1452;SDS011;720;47.738;7.998;2024-01-27T07:05:25;1.80;;;1.40;;
1452;SDS011;720;47.738;7.998;2024-01-27T07:07:51;1.93;;;1.30;;
1452;SDS011;720;47.738;7.998;2024-01-27T07:10:16;3.40;;;1.60;;
1452;SDS011;720;47.738;7.998;2024-01-27T07:12:42;1.93;;;1.80;;
1452;SDS011;720;47.738;7.998;2024-01-27T07:15:08;3.80;;;1.27;;
1452;SDS011;720;47.738;7.998;2024-01-27T07:17:33;2.80;;;1.50;;
1452;SDS011;720;47.738;7.998;2024-01-27T07:19:59;2.00;;;1.80;;
1452;SDS011;720;47.738;7.998;2024-01-27T07:22:25;2.67;;;2.00;;
1452;SDS011;720;47.738;7.998;2024-01-27T07:24:50;3.83;;;2.13;;
1452;SDS011;720;47.738;7.998;2024-01-27T07:27:16;1.70;;;1.60;;
1452;SDS011;720;47.738;7.998;2024-01-27T07:29:43;1.92;;;1.77;;
1452;SDS011;720;47.738;7.998;2024-01-27T07:32:09;5.50;;;1.83;;
1452;SDS011;720;47.738;7.998;2024-01-27T07:34:39;2.63;;;1.58;;
1452;SDS011;720;47.738;7.998;2024-01-27T07:37:08;2.35;;;1.98;;
1452;SDS011;720;47.738;7.998;2024-01-27T07:39:34;1.53;;;1.43;;
1452;SDS011;720;47.738;7.998;2024-01-27T07:42:00;3.25;;;1.33;;
1452;SDS011;720;47.738;7.998;2024-01-27T07:44:26;3.13;;;1.90;;
1452;SDS011;720;47.738;7.998;2024-01-27T07:46:52;3.67;;;1.83;;
1452;SDS011;720;47.738;7.998;2024-01-27T07:49:18;3.27;;;1.80;;
1452;SDS011;720;47.738;7.998;2024-01-27T07:51:44;3.90;;;3.60;;
1452;SDS011;720;47.738;7.998;2024-01-27T07:54:10;6.85;;;4.30;;
1452;SDS011;720;47.738;7.998;2024-01-27T07:56:35;6.63;;;3.90;;
1452;SDS011;720;47.738;7.998;2024-01-27T07:59:02;3.80;;;2.95;;
1452;SDS011;720;47.738;7.998;2024-01-27T08:01:28;3.83;;;3.40;;
1452;SDS011;720;47.738;7.998;2024-01-27T08:03:54;3.20;;;2.47;;
1452;SDS011;720;47.738;7.998;2024-01-27T08:06:27;3.77;;;3.40;;
1452;SDS011;720;47.738;7.998;2024-01-27T08:08:56;5.57;;;4.15;;
1452;SDS011;720;47.738;7.998;2024-01-27T08:11:22;5.00;;;3.43;;
1452;SDS011;720;47.738;7.998;2024-01-27T08:13:49;3.42;;;2.88;;
1452;SDS011;720;47.738;7.998;2024-01-27T08:16:15;3.00;;;2.67;;
1452;SDS011;720;47.738;7.998;2024-01-27T08:18:41;3.93;;;1.87;;
1452;SDS011;720;47.738;7.998;2024-01-27T08:21:09;2.23;;;1.97;;
1452;SDS011;720;47.738;7.998;2024-01-27T08:23:36;2.70;;;1.47;;
1452;SDS011;720;47.738;7.998;2024-01-27T08:26:02;2.50;;;2.30;;
1452;SDS011;720;47.738;7.998;2024-01-27T08:28:28;5.83;;;2.00;;
1452;SDS011;720;47.738;7.998;2024-01-27T08:30:54;2.40;;;1.70;;
1452;SDS011;720;47.738;7.998;2024-01-27T08:33:21;3.93;;;2.70;;
1452;SDS011;720;47.738;7.998;2024-01-27T08:35:47;6.10;;;4.60;;
1452;SDS011;720;47.738;7.998;2024-01-27T08:38:13;3.73;;;3.20;;
1452;SDS011;720;47.738;7.998;2024-01-27T08:40:39;3.53;;;3.07;;
1452;SDS011;720;47.738;7.998;2024-01-27T08:43:05;6.23;;;5.67;;
1452;SDS011;720;47.738;7.998;2024-01-27T08:45:31;5.13;;;4.70;;
1452;SDS011;720;47.738;7.998;2024-01-27T08:47:57;7.30;;;6.10;;
1452;SDS011;720;47.738;7.998;2024-01-27T08:50:22;8.10;;;7.30;;
1452;SDS011;720;47.738;7.998;2024-01-27T08:52:48;10.73;;;9.70;;
1452;SDS011;720;47.738;7.998;2024-01-27T08:55:13;6.97;;;4.40;;
1452;SDS011;720;47.738;7.998;2024-01-27T08:57:41;5.20;;;3.50;;
1452;SDS011;720;47.738;7.998;2024-01-27T09:00:07;4.53;;;3.87;;
1452;SDS011;720;47.738;7.998;2024-01-27T09:02:34;6.00;;;5.37;;
1452;SDS011;720;47.738;7.998;2024-01-27T09:05:00;7.43;;;3.30;;
1452;SDS011;720;47.738;7.998;2024-01-27T09:07:25;11.10;;;5.00;;
1452;SDS011;720;47.738;7.998;2024-01-27T09:09:52;9.60;;;6.30;;
1452;SDS011;720;47.738;7.998;2024-01-27T09:12:20;2.07;;;1.80;;
1452;SDS011;720;47.738;7.998;2024-01-27T09:14:46;1.60;;;1.50;;
1452;SDS011;720;47.738;7.998;2024-01-27T09:17:12;2.27;;;1.80;;
1452;SDS011;720;47.738;7.998;2024-01-27T09:19:38;3.80;;;3.00;;
1452;SDS011;720;47.738;7.998;2024-01-27T09:22:03;5.13;;;2.30;;
1452;SDS011;720;47.738;7.998;2024-01-27T09:24:29;4.83;;;1.87;;
1452;SDS011;720;47.738;7.998;2024-01-27T09:26:54;2.73;;;2.53;;
1452;SDS011;720;47.738;7.998;2024-01-27T09:29:20;1.73;;;1.63;;
1452;SDS011;720;47.738;7.998;2024-01-27T09:31:47;4.03;;;2.47;;
1452;SDS011;720;47.738;7.998;2024-01-27T09:34:13;3.60;;;3.30;;
1452;SDS011;720;47.738;7.998;2024-01-27T09:36:38;2.50;;;2.30;;
1452;SDS011;720;47.738;7.998;2024-01-27T09:39:04;3.63;;;2.40;;
1452;SDS011;720;47.738;7.998;2024-01-27T09:41:30;2.20;;;1.90;;
1452;SDS011;720;47.738;7.998;2024-01-27T09:44:00;3.43;;;1.80;;
1452;SDS011;720;47.738;7.998;2024-01-27T09:46:28;1.87;;;1.77;;
1452;SDS011;720;47.738;7.998;2024-01-27T09:48:55;2.73;;;1.93;;
1452;SDS011;720;47.738;7.998;2024-01-27T09:51:21;2.43;;;1.90;;
1452;SDS011;720;47.738;7.998;2024-01-27T09:53:47;2.73;;;2.13;;
1452;SDS011;720;47.738;7.998;2024-01-27T09:56:17;4.70;;;2.57;;
1452;SDS011;720;47.738;7.998;2024-01-27T09:58:46;2.20;;;2.00;;
1452;SDS011;720;47.738;7.998;2024-01-27T10:01:16;2.70;;;2.23;;
1452;SDS011;720;47.738;7.998;2024-01-27T10:03:43;3.97;;;3.23;;
1452;SDS011;720;47.738;7.998;2024-01-27T10:06:09;4.63;;;3.23;;
1452;SDS011;720;47.738;7.998;2024-01-27T10:08:35;2.30;;;1.80;;
1452;SDS011;720;47.738;7.998;2024-01-27T10:11:06;30.70;;;20.80;;
1452;SDS011;720;47.738;7.998;2024-01-27T10:13:33;14.43;;;11.97;;
1452;SDS011;720;47.738;7.998;2024-01-27T10:16:02;11.87;;;6.20;;
1452;SDS011;720;47.738;7.998;2024-01-27T10:18:32;7.23;;;4.60;;
1452;SDS011;720;47.738;7.998;2024-01-27T10:20:58;4.30;;;1.40;;
1452;SDS011;720;47.738;7.998;2024-01-27T10:23:24;1.67;;;1.57;;
1452;SDS011;720;47.738;7.998;2024-01-27T10:25:52;2.80;;;1.17;;
1452;SDS011;720;47.738;7.998;2024-01-27T10:28:19;1.53;;;1.20;;
1452;SDS011;720;47.738;7.998;2024-01-27T10:30:45;1.23;;;1.07;;
1452;SDS011;720;47.738;7.998;2024-01-27T10:33:13;4.60;;;1.70;;
1452;SDS011;720;47.738;7.998;2024-01-27T10:35:39;1.47;;;1.33;;
1452;SDS011;720;47.738;7.998;2024-01-27T10:38:06;1.43;;;1.23;;
1452;SDS011;720;47.738;7.998;2024-01-27T10:40:34;1.10;;;1.00;;
1452;SDS011;720;47.738;7.998;2024-01-27T10:43:05;1.80;;;1.33;;
1452;SDS011;720;47.738;7.998;2024-01-27T10:45:34;1.37;;;1.10;;
1452;SDS011;720;47.738;7.998;2024-01-27T10:48:02;2.57;;;1.23;;
1452;SDS011;720;47.738;7.998;2024-01-27T10:50:29;1.73;;;0.80;;
1452;SDS011;720;47.738;7.998;2024-01-27T10:52:57;1.47;;;0.83;;
1452;SDS011;720;47.738;7.998;2024-01-27T10:55:24;1.67;;;1.00;;
1452;SDS011;720;47.738;7.998;2024-01-27T10:57:50;1.63;;;1.47;;
1452;SDS011;720;47.738;7.998;2024-01-27T11:00:19;1.50;;;1.07;;
1452;SDS011;720;47.738;7.998;2024-01-27T11:02:45;1.20;;;0.90;;
1452;SDS011;720;47.738;7.998;2024-01-27T11:05:11;1.53;;;1.17;;
1452;SDS011;720;47.738;7.998;2024-01-27T11:07:40;1.00;;;0.83;;
1452;SDS011;720;47.738;7.998;2024-01-27T11:10:07;0.80;;;0.70;;
1452;SDS011;720;47.738;7.998;2024-01-27T11:12:33;4.40;;;1.00;;
1452;SDS011;720;47.738;7.998;2024-01-27T11:14:59;0.90;;;0.77;;
1452;SDS011;720;47.738;7.998;2024-01-27T11:17:25;0.70;;;0.70;;
1452;SDS011;720;47.738;7.998;2024-01-27T11:19:51;1.53;;;1.43;;
1452;SDS011;720;47.738;7.998;2024-01-27T11:22:36;2.53;;;1.13;;
1452;SDS011;720;47.738;7.998;2024-01-27T11:27:38;1.13;;;0.97;;
1452;SDS011;720;47.738;7.998;2024-01-27T11:30:04;2.50;;;1.17;;
1452;SDS011;720;47.738;7.998;2024-01-27T11:32:33;0.80;;;0.80;;
1452;SDS011;720;47.738;7.998;2024-01-27T11:35:00;1.00;;;0.90;;
1452;SDS011;720;47.738;7.998;2024-01-27T11:37:29;5.03;;;1.13;;
1452;SDS011;720;47.738;7.998;2024-01-27T11:40:05;1.20;;;1.10;;
1452;SDS011;720;47.738;7.998;2024-01-27T11:42:31;2.00;;;0.90;;
1452;SDS011;720;47.738;7.998;2024-01-27T11:44:56;4.83;;;1.40;;
1452;SDS011;720;47.738;7.998;2024-01-27T11:47:22;2.60;;;1.10;;
1452;SDS011;720;47.738;7.998;2024-01-27T11:49:54;1.73;;;0.80;;
1452;SDS011;720;47.738;7.998;2024-01-27T11:52:22;2.60;;;1.10;;
1452;SDS011;720;47.738;7.998;2024-01-27T11:55:00;3.08;;;0.93;;
1452;SDS011;720;47.738;7.998;2024-01-27T11:57:26;0.97;;;0.70;;
1452;SDS011;720;47.738;7.998;2024-01-27T11:59:52;2.35;;;1.63;;
1452;SDS011;720;47.738;7.998;2024-01-27T12:02:18;1.65;;;1.20;;
1452;SDS011;720;47.738;7.998;2024-01-27T12:04:44;1.57;;;1.37;;
1452;SDS011;720;47.738;7.998;2024-01-27T12:07:10;2.13;;;1.10;;
1452;SDS011;720;47.738;7.998;2024-01-27T12:09:36;1.63;;;1.00;;
1452;SDS011;720;47.738;7.998;2024-01-27T12:12:02;1.67;;;1.00;;
1452;SDS011;720;47.738;7.998;2024-01-27T12:14:41;2.42;;;1.48;;
1452;SDS011;720;47.738;7.998;2024-01-27T12:17:10;3.22;;;1.17;;
1452;SDS011;720;47.738;7.998;2024-01-27T12:19:36;5.83;;;0.90;;
1452;SDS011;720;47.738;7.998;2024-01-27T12:22:02;1.52;;;0.93;;
1452;SDS011;720;47.738;7.998;2024-01-27T12:24:29;4.05;;;0.90;;
1452;SDS011;720;47.738;7.998;2024-01-27T12:26:57;1.73;;;0.93;;
1452;SDS011;720;47.738;7.998;2024-01-27T12:29:24;1.15;;;0.90;;
1452;SDS011;720;47.738;7.998;2024-01-27T12:31:49;3.60;;;1.47;;
1452;SDS011;720;47.738;7.998;2024-01-27T12:34:16;1.40;;;1.30;;
1452;SDS011;720;47.738;7.998;2024-01-27T12:36:42;2.83;;;1.50;;
1452;SDS011;720;47.738;7.998;2024-01-27T12:39:09;1.10;;;0.90;;
1452;SDS011;720;47.738;7.998;2024-01-27T12:41:37;0.93;;;0.93;;
1452;SDS011;720;47.738;7.998;2024-01-27T12:44:03;0.70;;;0.70;;
1452;SDS011;720;47.738;7.998;2024-01-27T12:46:31;6.50;;;2.03;;
1452;SDS011;720;47.738;7.998;2024-01-27T12:48:57;0.90;;;0.60;;
1452;SDS011;720;47.738;7.998;2024-01-27T12:51:23;1.23;;;1.10;;
1452;SDS011;720;47.738;7.998;2024-01-27T12:53:49;0.98;;;0.85;;
1452;SDS011;720;47.738;7.998;2024-01-27T12:56:15;1.27;;;1.10;;
1452;SDS011;720;47.738;7.998;2024-01-27T12:58:41;0.83;;;0.83;;
1452;SDS011;720;47.738;7.998;2024-01-27T13:01:07;0.90;;;0.90;;
1452;SDS011;720;47.738;7.998;2024-01-27T13:03:34;1.40;;;1.30;;
1452;SDS011;720;47.738;7.998;2024-01-27T13:06:00;0.85;;;0.80;;
1452;SDS011;720;47.738;7.998;2024-01-27T13:08:27;4.75;;;1.65;;
1452;SDS011;720;47.738;7.998;2024-01-27T13:10:53;1.63;;;1.53;;
1452;SDS011;720;47.738;7.998;2024-01-27T13:13:18;0.70;;;0.70;;
1452;SDS011;720;47.738;7.998;2024-01-27T13:15:44;2.40;;;0.90;;
1452;SDS011;720;47.738;7.998;2024-01-27T13:18:10;2.10;;;1.17;;
1452;SDS011;720;47.738;7.998;2024-01-27T13:20:36;2.63;;;1.50;;
1452;SDS011;720;47.738;7.998;2024-01-27T13:23:02;2.05;;;1.27;;
1452;SDS011;720;47.738;7.998;2024-01-27T13:25:27;3.33;;;1.23;;
1452;SDS011;720;47.738;7.998;2024-01-27T13:27:53;1.20;;;1.10;;
1452;SDS011;720;47.738;7.998;2024-01-27T13:30:20;1.30;;;0.80;;
1452;SDS011;720;47.738;7.998;2024-01-27T13:32:46;0.83;;;0.83;;
1452;SDS011;720;47.738;7.998;2024-01-27T13:35:12;0.93;;;0.90;;
1452;SDS011;720;47.738;7.998;2024-01-27T13:37:37;2.70;;;1.40;;
1452;SDS011;720;47.738;7.998;2024-01-27T13:40:04;2.30;;;1.30;;
1452;SDS011;720;47.738;7.998;2024-01-27T13:42:32;3.88;;;1.00;;
1452;SDS011;720;47.738;7.998;2024-01-27T13:44:58;1.53;;;1.10;;
1452;SDS011;720;47.738;7.998;2024-01-27T13:47:24;4.00;;;1.20;;
1452;SDS011;720;47.738;7.998;2024-01-27T13:49:50;1.60;;;1.50;;
1452;SDS011;720;47.738;7.998;2024-01-27T13:52:15;1.23;;;0.70;;
1452;SDS011;720;47.738;7.998;2024-01-27T13:54:41;2.30;;;1.23;;
1452;SDS011;720;47.738;7.998;2024-01-27T13:57:07;0.87;;;0.70;;
1452;SDS011;720;47.738;7.998;2024-01-27T13:59:35;3.53;;;0.93;;
1452;SDS011;720;47.738;7.998;2024-01-27T14:02:01;1.97;;;1.30;;
1452;SDS011;720;47.738;7.998;2024-01-27T14:04:26;2.27;;;1.20;;
1452;SDS011;720;47.738;7.998;2024-01-27T14:06:52;1.20;;;1.10;;
1452;SDS011;720;47.738;7.998;2024-01-27T14:09:18;1.20;;;0.93;;
1452;SDS011;720;47.738;7.998;2024-01-27T14:11:48;2.33;;;0.90;;
1452;SDS011;720;47.738;7.998;2024-01-27T14:14:13;1.53;;;0.93;;
1452;SDS011;720;47.738;7.998;2024-01-27T14:16:39;3.40;;;1.27;;
1452;SDS011;720;47.738;7.998;2024-01-27T14:19:06;4.03;;;1.60;;
1452;SDS011;720;47.738;7.998;2024-01-27T14:21:32;1.25;;;1.15;;
1452;SDS011;720;47.738;7.998;2024-01-27T14:23:58;2.40;;;1.48;;
1452;SDS011;720;47.738;7.998;2024-01-27T14:26:30;2.80;;;1.20;;
1452;SDS011;720;47.738;7.998;2024-01-27T14:28:57;2.47;;;1.05;;
1452;SDS011;720;47.738;7.998;2024-01-27T14:31:23;1.95;;;1.75;;
1452;SDS011;720;47.738;7.998;2024-01-27T14:33:49;2.27;;;1.97;;
1452;SDS011;720;47.738;7.998;2024-01-27T14:36:15;2.70;;;1.70;;
1452;SDS011;720;47.738;7.998;2024-01-27T14:38:41;5.13;;;1.80;;
1452;SDS011;720;47.738;7.998;2024-01-27T14:41:07;0.80;;;0.80;;
1452;SDS011;720;47.738;7.998;2024-01-27T14:43:33;3.30;;;1.60;;
1452;SDS011;720;47.738;7.998;2024-01-27T14:45:59;5.30;;;1.60;;
1452;SDS011;720;47.738;7.998;2024-01-27T14:48:25;2.87;;;1.40;;
1452;SDS011;720;47.738;7.998;2024-01-27T14:50:51;2.90;;;1.85;;
1452;SDS011;720;47.738;7.998;2024-01-27T14:53:24;1.70;;;1.52;;
1452;SDS011;720;47.738;7.998;2024-01-27T14:55:50;2.10;;;2.00;;
1452;SDS011;720;47.738;7.998;2024-01-27T14:58:16;1.90;;;1.60;;
1452;SDS011;720;47.738;7.998;2024-01-27T15:00:42;1.10;;;1.00;;
1452;SDS011;720;47.738;7.998;2024-01-27T15:03:08;1.70;;;1.60;;
1452;SDS011;720;47.738;7.998;2024-01-27T15:05:33;4.27;;;2.23;;
1452;SDS011;720;47.738;7.998;2024-01-27T15:08:02;4.15;;;3.03;;
1452;SDS011;720;47.738;7.998;2024-01-27T15:10:28;2.53;;;1.50;;
1452;SDS011;720;47.738;7.998;2024-01-27T15:12:54;4.57;;;3.20;;
1452;SDS011;720;47.738;7.998;2024-01-27T15:15:20;2.13;;;1.77;;
1452;SDS011;720;47.738;7.998;2024-01-27T15:17:46;2.20;;;1.40;;
1452;SDS011;720;47.738;7.998;2024-01-27T15:20:12;1.70;;;1.60;;
1452;SDS011;720;47.738;7.998;2024-01-27T15:22:37;1.27;;;1.27;;
1452;SDS011;720;47.738;7.998;2024-01-27T15:25:03;2.10;;;1.30;;
1452;SDS011;720;47.738;7.998;2024-01-27T15:27:30;2.40;;;1.25;;